Time;durP1;ratioP1;P1;durP2;ratioP2;P2;SDS_P1;SDS_P2;PMS_P1;PMS_P2;Temp;Humidity;BMP_temperature;BMP_pressure;BME280_temperature;BME280_humidity;BME280_pressure;Samples;Min_cycle;Max_cycle;Signal;HPM_P1;HPM_P2
2022/04/08 00:01:28;;;;;;;3.63;0.80;;;9.10;88.50;;;;;;5077288;28;20021;-81
2022/04/08 00:03:55;;;;;;;5.10;0.88;;;9.10;88.60;;;;;;5065421;28;20028;-81
2022/04/08 00:06:21;;;;;;;3.67;0.75;;;9.20;88.10;;;;;;5082830;28;20032;-80
2022/04/08 00:08:50;;;;;;;3.67;0.90;;;9.20;88.70;;;;;;5071530;28;20031;-81
2022/04/08 00:11:16;;;;;;;8.73;1.05;;;9.30;88.00;;;;;;5055185;28;20032;-83
2022/04/08 00:13:42;;;;;;;3.92;0.80;;;9.20;87.90;;;;;;5063324;28;20532;-80
2022/04/08 00:16:08;;;;;;;6.25;1.25;;;9.30;87.90;;;;;;5080902;28;20103;-81
2022/04/08 00:18:39;;;;;;;5.25;0.93;;;9.30;88.50;;;;;;5079894;28;20016;-79
2022/04/08 00:21:05;;;;;;;5.18;0.63;;;9.30;87.70;;;;;;5074616;28;20024;-83
2022/04/08 00:23:31;;;;;;;4.03;0.80;;;9.30;87.90;;;;;;5073046;28;20059;-82
2022/04/08 00:25:56;;;;;;;2.00;0.60;;;9.30;87.00;;;;;;5069023;28;20107;-83
2022/04/08 00:28:22;;;;;;;4.63;0.93;;;9.40;87.90;;;;;;5074145;28;20100;-81
2022/04/08 00:30:47;;;;;;;4.93;0.95;;;9.40;87.50;;;;;;5081524;28;20024;-85
2022/04/08 00:33:13;;;;;;;5.00;1.10;;;9.30;87.10;;;;;;5062319;28;20668;-81
2022/04/08 00:35:38;;;;;;;2.67;0.65;;;9.30;87.80;;;;;;5077413;28;20046;-81
2022/04/08 00:38:04;;;;;;;3.55;0.90;;;9.40;87.50;;;;;;5063969;28;20020;-82
2022/04/08 00:40:29;;;;;;;3.58;0.88;;;9.40;87.20;;;;;;5079132;28;20032;-81
2022/04/08 00:42:55;;;;;;;3.90;1.10;;;9.30;87.20;;;;;;5064254;28;20025;-82
2022/04/08 00:45:21;;;;;;;2.95;1.17;;;9.30;87.60;;;;;;5082918;28;20024;-82
2022/04/08 00:47:48;;;;;;;2.92;1.08;;;9.20;87.70;;;;;;5082205;28;20048;-82
2022/04/08 00:50:14;;;;;;;1.67;0.60;;;9.20;87.70;;;;;;5079433;28;20132;-82
2022/04/08 00:52:41;;;;;;;2.55;0.50;;;9.10;88.50;;;;;;5085130;28;20020;-84
2022/04/08 00:55:10;;;;;;;3.30;0.70;;;9.10;88.50;;;;;;5054836;28;20025;-80
2022/04/08 00:57:35;;;;;;;2.75;0.65;;;9.00;88.60;;;;;;5056042;28;20111;-83
2022/04/08 01:00:09;;;;;;;2.33;0.77;;;9.00;89.00;;;;;;5076660;28;20082;-80
2022/04/08 01:02:35;;;;;;;1.60;0.70;;;9.10;89.40;;;;;;5057895;28;20021;-83
2022/04/08 01:05:01;;;;;;;2.95;0.70;;;9.00;89.00;;;;;;5084013;28;20028;-82
2022/04/08 01:07:27;;;;;;;1.25;0.68;;;9.10;88.80;;;;;;5052120;28;20162;-84
2022/04/08 01:09:52;;;;;;;4.07;0.70;;;9.00;89.40;;;;;;5072681;28;20029;-82
2022/04/08 01:12:18;;;;;;;2.75;0.77;;;8.90;89.70;;;;;;5055550;28;20033;-83
2022/04/08 01:14:44;;;;;;;2.67;0.80;;;9.00;90.00;;;;;;5062030;28;20028;-84
2022/04/08 01:17:10;;;;;;;2.08;0.98;;;8.90;89.80;;;;;;5085902;28;20030;-84
2022/04/08 01:19:35;;;;;;;4.10;0.80;;;8.90;90.30;;;;;;5079976;28;20121;-82
2022/04/08 01:22:01;;;;;;;0.95;0.65;;;8.80;90.40;;;;;;5056620;28;20048;-84
2022/04/08 01:24:29;;;;;;;3.40;0.80;;;8.70;90.50;;;;;;5074940;28;20028;-81
2022/04/08 01:26:54;;;;;;;5.13;0.90;;;8.70;90.70;;;;;;5048526;28;20059;-84
2022/04/08 01:29:20;;;;;;;2.05;0.88;;;8.60;90.80;;;;;;5066325;28;20488;-82
2022/04/08 01:31:45;;;;;;;3.80;1.10;;;8.50;91.00;;;;;;5061092;28;20044;-82
2022/04/08 01:34:12;;;;;;;3.70;0.98;;;8.50;91.30;;;;;;5065916;28;20028;-82
2022/04/08 01:36:37;;;;;;;2.10;0.70;;;8.40;91.30;;;;;;5056272;28;20034;-81
2022/04/08 01:39:04;;;;;;;4.57;1.30;;;8.40;91.50;;;;;;5056921;28;20024;-84
2022/04/08 01:41:31;;;;;;;2.47;0.82;;;8.40;91.60;;;;;;5091185;28;20036;-81
2022/04/08 01:43:57;;;;;;;2.35;0.80;;;8.30;91.40;;;;;;5089895;28;20024;-83
2022/04/08 01:46:22;;;;;;;3.95;0.75;;;8.30;91.50;;;;;;5083779;28;20052;-83
2022/04/08 01:48:51;;;;;;;1.98;0.70;;;8.30;91.60;;;;;;5085245;28;20023;-81
2022/04/08 01:51:16;;;;;;;2.35;1.10;;;8.30;91.60;;;;;;5055015;28;20025;-83
2022/04/08 01:53:42;;;;;;;7.53;2.22;;;8.30;91.60;;;;;;5064964;28;20039;-82
2022/04/08 01:56:07;;;;;;;2.35;1.27;;;8.30;91.70;;;;;;5070228;28;20032;-84
2022/04/08 01:58:32;;;;;;;2.10;0.75;;;8.30;91.50;;;;;;5067536;28;20040;-82
2022/04/08 02:00:59;;;;;;;4.90;1.13;;;8.30;91.70;;;;;;5047656;28;20081;-84
2022/04/08 02:03:25;;;;;;;2.00;1.17;;;8.30;91.90;;;;;;5082773;28;20032;-84
2022/04/08 02:05:51;;;;;;;2.85;1.00;;;8.40;91.70;;;;;;5074726;28;20020;-83
2022/04/08 02:08:16;;;;;;;3.22;1.05;;;8.40;91.70;;;;;;5077963;28;20031;-83
2022/04/08 02:10:42;;;;;;;2.65;0.98;;;8.30;91.60;;;;;;5075754;28;20524;-82
2022/04/08 02:13:08;;;;;;;3.40;0.70;;;8.40;91.70;;;;;;5076704;28;20020;-82
2022/04/08 02:15:34;;;;;;;1.50;0.63;;;8.40;91.70;;;;;;5061071;28;20074;-82
2022/04/08 02:18:04;;;;;;;2.08;0.82;;;8.30;91.80;;;;;;5070587;28;20036;-82
2022/04/08 02:20:31;;;;;;;1.98;0.70;;;8.30;91.80;;;;;;5051112;28;20201;-81
2022/04/08 02:22:58;;;;;;;1.48;0.85;;;8.30;91.90;;;;;;5070798;28;20105;-81
2022/04/08 02:25:25;;;;;;;1.42;0.88;;;8.30;91.90;;;;;;5060618;28;20028;-82
2022/04/08 02:27:51;;;;;;;0.90;0.52;;;8.30;91.90;;;;;;5072602;28;20066;-81
2022/04/08 02:30:16;;;;;;;2.97;1.23;;;8.20;92.00;;;;;;5065174;28;20041;-80
2022/04/08 02:32:42;;;;;;;3.45;0.82;;;8.30;92.00;;;;;;5064275;28;20025;-83
2022/04/08 02:35:08;;;;;;;1.42;0.82;;;8.30;92.10;;;;;;5063389;28;20044;-80
2022/04/08 02:37:33;;;;;;;1.58;0.80;;;8.20;92.10;;;;;;5066438;28;20031;-81
2022/04/08 02:39:59;;;;;;;0.85;0.60;;;8.20;92.00;;;;;;5071773;28;20040;-80
2022/04/08 02:42:24;;;;;;;2.03;0.90;;;8.20;92.00;;;;;;5076759;28;20086;-82
2022/04/08 02:44:50;;;;;;;1.80;1.10;;;8.20;92.10;;;;;;5079376;28;20091;-81
2022/04/08 02:47:15;;;;;;;1.08;0.50;;;8.20;92.00;;;;;;5070362;28;20047;-81
2022/04/08 02:49:41;;;;;;;4.28;1.13;;;8.30;91.80;;;;;;5070169;28;20078;-82
2022/04/08 02:52:07;;;;;;;2.20;0.85;;;8.30;91.80;;;;;;5088598;28;20031;-80
2022/04/08 02:54:32;;;;;;;3.17;1.08;;;8.30;92.10;;;;;;5085529;28;20029;-81
2022/04/08 02:56:58;;;;;;;3.85;1.30;;;8.30;91.70;;;;;;5082311;28;20024;-81
2022/04/08 02:59:23;;;;;;;5.00;0.93;;;8.20;91.80;;;;;;5072784;28;20033;-81
2022/04/08 03:01:49;;;;;;;2.53;0.98;;;8.30;91.80;;;;;;5066111;28;20028;-82
2022/04/08 03:04:14;;;;;;;1.80;0.90;;;8.30;91.80;;;;;;5072561;28;20111;-80
2022/04/08 03:06:40;;;;;;;2.60;0.98;;;8.40;91.60;;;;;;5074558;28;20028;-82
2022/04/08 03:09:05;;;;;;;1.08;0.88;;;8.30;91.70;;;;;;5061385;28;20032;-81
2022/04/08 03:11:32;;;;;;;1.27;0.88;;;8.40;91.60;;;;;;5069709;28;20119;-82
2022/04/08 03:14:03;;;;;;;2.33;1.40;;;8.30;91.70;;;;;;5054588;28;20028;-82
2022/04/08 03:16:29;;;;;;;4.00;0.98;;;8.40;91.60;;;;;;5057614;28;20123;-81
2022/04/08 03:18:54;;;;;;;3.05;0.90;;;8.40;91.40;;;;;;5068607;28;20533;-81
2022/04/08 03:21:20;;;;;;;2.15;1.00;;;8.40;91.50;;;;;;5054633;28;20029;-81
2022/04/08 03:23:47;;;;;;;2.75;1.30;;;8.40;91.30;;;;;;5053206;28;20017;-82
2022/04/08 03:26:12;;;;;;;1.52;0.88;;;8.40;91.40;;;;;;5053821;28;20021;-80
2022/04/08 03:28:38;;;;;;;1.52;1.15;;;8.40;91.50;;;;;;5068057;28;20032;-81
2022/04/08 03:31:03;;;;;;;1.80;1.67;;;8.30;91.60;;;;;;5061263;28;20044;-81
2022/04/08 03:33:29;;;;;;;1.40;0.90;;;8.30;91.70;;;;;;5067145;28;20016;-80
2022/04/08 03:35:54;;;;;;;3.03;1.20;;;8.20;92.00;;;;;;5075143;28;20048;-80
2022/04/08 03:38:20;;;;;;;3.40;1.25;;;8.20;91.90;;;;;;5069597;28;20086;-81
2022/04/08 03:40:47;;;;;;;4.25;1.17;;;8.20;92.30;;;;;;5051433;28;20032;-80
2022/04/08 03:43:12;;;;;;;1.85;1.00;;;8.20;92.00;;;;;;5067472;28;20091;-80
2022/04/08 03:45:38;;;;;;;1.65;0.80;;;8.20;92.10;;;;;;5066845;28;20054;-80
2022/04/08 03:48:03;;;;;;;2.30;1.00;;;8.10;92.10;;;;;;5050527;28;20025;-80
2022/04/08 03:50:29;;;;;;;2.22;1.08;;;8.20;92.20;;;;;;5064399;28;20063;-80
2022/04/08 03:52:55;;;;;;;1.83;1.00;;;8.20;92.20;;;;;;5045720;28;20028;-81
2022/04/08 03:55:20;;;;;;;1.95;1.38;;;8.20;92.30;;;;;;5063760;28;20028;-81
2022/04/08 03:57:47;;;;;;;1.98;0.90;;;8.20;92.40;;;;;;5067160;28;20029;-82
2022/04/08 04:00:13;;;;;;;2.00;0.93;;;8.20;92.30;;;;;;5066080;28;20678;-82
2022/04/08 04:02:38;;;;;;;2.38;0.95;;;8.20;92.40;;;;;;5060196;28;20461;-80
2022/04/08 04:05:04;;;;;;;4.65;1.23;;;8.20;92.40;;;;;;5069220;28;20052;-80
2022/04/08 04:07:32;;;;;;;2.95;0.77;;;8.30;92.40;;;;;;5063222;28;20119;-80
2022/04/08 04:09:59;;;;;;;1.98;1.08;;;8.30;92.20;;;;;;5065381;28;20036;-80
2022/04/08 04:12:26;;;;;;;3.80;1.13;;;8.30;92.20;;;;;;5062726;28;20057;-79
2022/04/08 04:14:53;;;;;;;4.53;1.17;;;8.30;92.20;;;;;;5079470;28;20460;-81
2022/04/08 04:17:19;;;;;;;1.67;1.30;;;8.30;92.10;;;;;;5054810;28;20495;-81
2022/04/08 04:19:44;;;;;;;4.43;1.08;;;8.30;92.00;;;;;;5063367;28;20044;-80
2022/04/08 04:22:10;;;;;;;2.75;1.55;;;8.30;91.90;;;;;;5072237;28;20090;-80
2022/04/08 04:24:35;;;;;;;1.65;1.33;;;8.30;92.00;;;;;;5077497;28;20030;-81
2022/04/08 04:27:01;;;;;;;3.08;2.33;;;8.30;91.90;;;;;;5089807;28;20084;-80
2022/04/08 04:29:26;;;;;;;1.42;1.02;;;8.40;92.00;;;;;;5078696;28;20055;-80
2022/04/08 04:31:55;;;;;;;3.53;1.20;;;8.40;91.90;;;;;;5075288;28;20091;-81
2022/04/08 04:34:22;;;;;;;3.22;1.50;;;8.50;91.90;;;;;;5073671;28;20020;-81
2022/04/08 04:36:47;;;;;;;2.60;1.27;;;8.40;92.00;;;;;;5075492;28;20461;-81
2022/04/08 04:39:13;;;;;;;2.35;1.15;;;8.40;91.90;;;;;;5056053;28;20039;-81
2022/04/08 04:41:38;;;;;;;2.80;1.20;;;8.40;91.90;;;;;;5075581;28;21712;-80
2022/04/08 04:44:04;;;;;;;2.83;1.27;;;8.40;91.80;;;;;;5055049;28;20132;-80
2022/04/08 04:46:30;;;;;;;4.72;1.27;;;8.40;91.80;;;;;;5068359;28;20031;-82
2022/04/08 04:48:56;;;;;;;2.17;1.20;;;8.40;91.90;;;;;;5071737;28;20416;-81
2022/04/08 04:51:21;;;;;;;3.83;1.17;;;8.50;91.60;;;;;;5063027;28;20024;-81
2022/04/08 04:53:47;;;;;;;3.38;1.73;;;8.60;91.70;;;;;;5087259;28;20078;-81
2022/04/08 04:56:12;;;;;;;2.35;1.05;;;8.50;91.50;;;;;;5040939;28;20471;-81
2022/04/08 04:58:38;;;;;;;2.20;1.17;;;8.60;91.40;;;;;;5049513;28;20066;-82
2022/04/08 05:01:03;;;;;;;1.70;1.10;;;8.60;91.40;;;;;;5045292;28;20025;-81
2022/04/08 05:03:29;;;;;;;2.80;1.00;;;8.60;91.20;;;;;;5078022;28;20703;-81
2022/04/08 05:05:55;;;;;;;1.25;0.98;;;8.50;91.20;;;;;;5069956;28;20033;-84
2022/04/08 05:08:23;;;;;;;3.55;1.13;;;8.60;91.20;;;;;;5056090;28;20039;-82
2022/04/08 05:10:49;;;;;;;1.55;0.90;;;8.50;91.20;;;;;;5056117;28;20028;-82
2022/04/08 05:13:14;;;;;;;2.00;1.13;;;8.50;91.20;;;;;;5058693;28;20131;-80
2022/04/08 05:15:42;;;;;;;3.15;1.10;;;8.50;91.30;;;;;;5064575;28;20027;-82
2022/04/08 05:18:09;;;;;;;1.88;1.08;;;8.60;91.20;;;;;;5073656;28;20020;-80
2022/04/08 05:20:34;;;;;;;2.20;1.08;;;8.60;91.20;;;;;;5073338;28;20708;-82
2022/04/08 05:23:00;;;;;;;0.77;0.70;;;8.60;91.20;;;;;;5077776;28;20024;-83
2022/04/08 05:25:26;;;;;;;3.00;0.85;;;8.60;91.00;;;;;;5082050;28;20115;-82
2022/04/08 05:27:52;;;;;;;0.93;0.70;;;8.60;91.00;;;;;;5073004;28;20057;-79
2022/04/08 05:30:19;;;;;;;2.38;0.80;;;8.60;91.20;;;;;;5072738;28;20035;-82
2022/04/08 05:32:46;;;;;;;1.70;0.70;;;8.60;91.00;;;;;;5091427;28;20039;-82
2022/04/08 05:35:14;;;;;;;4.82;1.30;;;8.60;91.00;;;;;;5062474;28;20035;-80
2022/04/08 05:37:44;;;;;;;0.80;0.80;;;8.60;90.90;;;;;;5068616;28;20027;-83
2022/04/08 05:40:14;;;;;;;4.13;0.90;;;8.60;90.70;;;;;;5070853;28;20036;-83
2022/04/08 05:42:47;;;;;;;3.97;0.98;;;8.60;90.80;;;;;;5051940;28;20322;-82
2022/04/08 05:45:13;;;;;;;;;;;8.60;91.20;;;;;;5075613;28;20028;-82
2022/04/08 05:47:39;;;;;;;1.27;0.85;;;8.60;90.80;;;;;;5077224;28;20002;-83
2022/04/08 05:50:05;;;;;;;1.70;1.00;;;8.60;90.80;;;;;;5070176;28;20032;-81
2022/04/08 05:52:30;;;;;;;3.17;1.17;;;8.60;91.20;;;;;;5069334;28;20024;-82
2022/04/08 05:54:56;;;;;;;4.45;1.00;;;8.60;91.20;;;;;;5069236;28;20029;-82
2022/04/08 05:57:22;;;;;;;2.65;0.93;;;8.70;91.00;;;;;;5078635;28;20028;-82
2022/04/08 05:59:48;;;;;;;3.90;0.88;;;8.70;90.80;;;;;;5083416;28;20050;-81
2022/04/08 06:02:13;;;;;;;3.58;0.80;;;8.80;91.00;;;;;;5064435;28;20054;-82
2022/04/08 06:04:39;;;;;;;0.70;0.57;;;8.80;90.80;;;;;;5069988;28;20024;-82
2022/04/08 06:07:04;;;;;;;2.13;0.70;;;8.80;90.70;;;;;;5069909;28;20024;-81
2022/04/08 06:09:30;;;;;;;3.13;1.00;;;8.80;90.70;;;;;;5063306;28;20039;-81
2022/04/08 06:11:56;;;;;;;1.80;0.90;;;8.70;90.80;;;;;;5075454;28;20528;-82
2022/04/08 06:14:21;;;;;;;2.20;0.90;;;8.70;91.20;;;;;;5058628;28;20033;-82
2022/04/08 06:16:47;;;;;;;1.38;0.80;;;8.70;90.70;;;;;;5075966;28;20066;-83
2022/04/08 06:19:12;;;;;;;0.98;0.60;;;8.80;90.90;;;;;;5050869;28;20058;-82
2022/04/08 06:21:38;;;;;;;1.95;1.00;;;8.90;90.60;;;;;;5072672;28;20024;-82
2022/04/08 06:24:04;;;;;;;2.20;1.00;;;8.90;90.30;;;;;;5077867;28;20035;-83
2022/04/08 06:26:29;;;;;;;4.20;1.23;;;8.90;90.30;;;;;;5066322;28;20029;-84
2022/04/08 06:28:55;;;;;;;4.03;1.27;;;8.90;90.10;;;;;;5049419;28;20036;-82
2022/04/08 06:31:20;;;;;;;2.25;0.80;;;8.90;90.20;;;;;;5068888;28;20020;-82
2022/04/08 06:33:46;;;;;;;3.45;0.90;;;8.90;90.10;;;;;;5061816;28;20040;-82
2022/04/08 06:36:11;;;;;;;2.67;0.90;;;8.80;89.90;;;;;;5076212;28;20664;-78
2022/04/08 06:38:37;;;;;;;3.13;0.75;;;8.90;88.70;;;;;;5067810;28;20033;-81
2022/04/08 06:41:02;;;;;;;1.25;0.73;;;8.80;89.20;;;;;;5049560;28;20020;-83
2022/04/08 06:43:28;;;;;;;1.45;0.70;;;8.80;89.40;;;;;;5054357;28;20029;-83
2022/04/08 06:45:54;;;;;;;1.95;0.75;;;8.80;87.70;;;;;;5055055;28;20631;-82
2022/04/08 06:48:20;;;;;;;0.68;0.57;;;8.80;86.60;;;;;;5049007;28;20725;-82
2022/04/08 06:50:45;;;;;;;2.50;0.70;;;8.90;86.60;;;;;;5049732;28;20111;-81
2022/04/08 06:53:11;;;;;;;1.55;0.70;;;9.00;86.20;;;;;;5058461;28;20366;-82
2022/04/08 06:55:36;;;;;;;1.38;0.57;;;9.00;85.00;;;;;;5058379;28;20028;-81
2022/04/08 06:58:03;;;;;;;1.83;0.60;;;9.00;84.60;;;;;;5083284;28;20027;-81
2022/04/08 07:00:31;;;;;;;5.30;0.50;;;9.00;84.10;;;;;;5070714;28;20237;-83
2022/04/08 07:02:57;;;;;;;1.80;0.68;;;9.10;84.30;;;;;;5088348;28;20024;-82
2022/04/08 07:05:25;;;;;;;11.98;1.85;;;9.20;84.50;;;;;;5084875;28;20520;-83
2022/04/08 07:07:50;;;;;;;0.80;0.40;;;9.20;83.80;;;;;;5081707;28;20594;-82
2022/04/08 07:10:16;;;;;;;1.95;0.70;;;9.20;82.50;;;;;;5052313;28;20036;-81
2022/04/08 07:12:41;;;;;;;1.60;0.50;;;9.20;83.90;;;;;;5068584;28;20033;-82
2022/04/08 07:15:07;;;;;;;1.48;0.80;;;9.20;83.40;;;;;;5076159;28;20051;-81
2022/04/08 07:17:34;;;;;;;0.52;0.40;;;9.30;83.40;;;;;;5070918;28;20062;-82
2022/04/08 07:20:00;;;;;;;2.58;0.70;;;9.30;83.50;;;;;;5079922;28;20028;-82
2022/04/08 07:22:26;;;;;;;1.13;0.57;;;9.30;84.00;;;;;;5088307;28;20031;-83
2022/04/08 07:24:53;;;;;;;0.85;0.70;;;9.40;83.70;;;;;;5057534;28;20025;-83
2022/04/08 07:27:20;;;;;;;1.73;0.60;;;9.40;84.70;;;;;;5049115;28;20020;-83
2022/04/08 07:29:47;;;;;;;1.95;0.50;;;9.50;83.90;;;;;;5070387;28;20033;-83
2022/04/08 07:32:13;;;;;;;3.95;0.65;;;9.50;83.50;;;;;;5073893;28;20447;-80
2022/04/08 07:34:39;;;;;;;5.43;0.63;;;9.60;83.60;;;;;;5069860;28;20020;-81
2022/04/08 07:37:05;;;;;;;1.45;1.30;;;9.70;84.40;;;;;;5077464;28;20029;-81
2022/04/08 07:39:31;;;;;;;1.65;0.70;;;9.60;84.70;;;;;;5049699;28;20070;-80
2022/04/08 07:41:57;;;;;;;1.42;0.65;;;9.60;83.20;;;;;;5078988;28;20059;-80
2022/04/08 07:44:23;;;;;;;1.83;1.10;;;9.70;82.30;;;;;;5079115;28;20029;-81
2022/04/08 07:46:48;;;;;;;1.27;0.63;;;9.70;82.50;;;;;;5058317;28;20021;-80
2022/04/08 07:49:14;;;;;;;1.08;0.70;;;9.70;83.00;;;;;;5085161;28;20034;-81
2022/04/08 07:51:41;;;;;;;5.63;0.70;;;9.70;81.20;;;;;;5053907;28;20409;-81
2022/04/08 07:54:07;;;;;;;2.60;0.70;;;9.60;81.40;;;;;;5080039;28;20013;-80
2022/04/08 07:56:35;;;;;;;0.80;0.50;;;9.50;80.90;;;;;;5084584;28;20028;-80
2022/04/08 07:59:02;;;;;;;1.85;0.57;;;9.50;81.70;;;;;;5068636;28;20017;-81
2022/04/08 08:01:28;;;;;;;1.65;0.68;;;9.70;82.50;;;;;;5052508;28;20035;-81
2022/04/08 08:03:53;;;;;;;1.10;0.73;;;9.70;81.60;;;;;;5059869;28;20020;-81
2022/04/08 08:06:20;;;;;;;1.10;0.50;;;9.80;81.10;;;;;;5082646;28;20066;-81
2022/04/08 08:08:46;;;;;;;0.50;0.40;;;9.80;80.60;;;;;;5092637;28;20020;-81
2022/04/08 08:11:13;;;;;;;0.85;0.47;;;9.90;80.40;;;;;;5092006;28;20024;-81
2022/04/08 08:13:39;;;;;;;3.40;0.60;;;10.00;79.50;;;;;;5068174;28;20012;-81
2022/04/08 08:16:07;;;;;;;1.35;0.60;;;9.90;79.50;;;;;;5085253;28;20024;-80
2022/04/08 08:18:33;;;;;;;1.77;0.40;;;9.90;79.70;;;;;;5072021;28;20031;-80
2022/04/08 08:20:58;;;;;;;0.52;0.50;;;10.10;80.70;;;;;;5053337;28;20028;-81
2022/04/08 08:23:24;;;;;;;0.93;0.50;;;10.30;80.90;;;;;;5054545;28;20032;-81
2022/04/08 08:25:49;;;;;;;1.13;0.63;;;10.50;79.20;;;;;;5076187;28;20602;-80
2022/04/08 08:28:15;;;;;;;2.53;0.40;;;10.50;79.20;;;;;;5080189;28;20028;-81
2022/04/08 08:30:40;;;;;;;1.60;0.50;;;10.40;79.70;;;;;;5072815;28;20028;-80
2022/04/08 08:33:06;;;;;;;1.17;0.60;;;10.40;79.70;;;;;;5049666;28;20086;-81
2022/04/08 08:35:33;;;;;;;2.58;0.70;;;10.40;79.70;;;;;;5050314;28;20458;-82
2022/04/08 08:37:59;;;;;;;2.78;0.70;;;10.40;80.40;;;;;;5077722;28;20402;-81
2022/04/08 08:40:25;;;;;;;6.85;1.13;;;10.40;79.60;;;;;;5072877;28;20384;-81
2022/04/08 08:42:50;;;;;;;2.38;0.80;;;10.30;79.40;;;;;;5058660;28;20025;-81
2022/04/08 08:45:17;;;;;;;1.90;1.08;;;10.30;79.40;;;;;;5065581;28;20478;-81
2022/04/08 08:47:49;;;;;;;4.07;1.00;;;10.40;79.10;;;;;;5055078;28;20387;-82
2022/04/08 08:50:16;;;;;;;2.95;0.60;;;10.60;79.00;;;;;;5080797;28;20029;-82
2022/04/08 08:52:42;;;;;;;0.65;0.52;;;10.60;77.70;;;;;;5073565;28;20044;-81
2022/04/08 08:55:08;;;;;;;1.35;0.88;;;10.70;77.10;;;;;;5071138;28;20055;-81
2022/04/08 08:57:34;;;;;;;4.03;0.70;;;10.80;78.30;;;;;;5069333;28;20033;-81
2022/04/08 09:00:15;;;;;;;1.08;0.60;;;10.90;78.00;;;;;;5070009;28;20040;-81
2022/04/08 09:02:45;;;;;;;2.13;0.90;;;11.00;77.00;;;;;;5074552;28;20031;-81
2022/04/08 09:05:32;;;;;;;1.55;0.60;;;11.00;76.90;;;;;;5082200;28;20036;-81
2022/04/08 09:08:00;;;;;;;4.38;0.70;;;11.10;76.10;;;;;;5058862;28;20679;-81
2022/04/08 09:10:26;;;;;;;2.38;0.63;;;11.10;76.50;;;;;;5080459;28;20059;-81
2022/04/08 09:12:56;;;;;;;3.42;0.63;;;11.10;75.80;;;;;;5062449;28;20028;-81
2022/04/08 09:15:22;;;;;;;3.53;0.98;;;11.00;76.40;;;;;;5079281;28;20048;-80
2022/04/08 09:17:47;;;;;;;1.63;0.80;;;11.10;76.10;;;;;;5090099;28;20105;-81
2022/04/08 09:20:13;;;;;;;1.27;0.60;;;11.10;75.60;;;;;;5089972;28;20033;-81
2022/04/08 09:22:38;;;;;;;2.58;0.70;;;11.00;74.90;;;;;;5070242;28;20028;-82
2022/04/08 09:25:12;;;;;;;2.50;0.82;;;11.00;74.30;;;;;;5078482;28;20139;-82
2022/04/08 09:27:39;;;;;;;2.33;0.82;;;10.90;74.00;;;;;;5076432;28;20135;-83
2022/04/08 09:30:07;;;;;;;2.00;0.65;;;10.80;75.20;;;;;;5051491;28;20029;-82
2022/04/08 09:32:33;;;;;;;2.13;0.70;;;10.90;76.30;;;;;;5070534;28;20095;-82
2022/04/08 09:34:59;;;;;;;4.10;0.93;;;11.00;76.30;;;;;;5076681;28;20488;-83
2022/04/08 09:37:24;;;;;;;3.42;0.80;;;11.10;76.70;;;;;;5075214;28;20105;-81
2022/04/08 09:40:07;;;;;;;3.55;0.70;;;11.30;77.10;;;;;;5057506;28;20064;-83
2022/04/08 09:42:44;;;;;;;1.63;0.88;;;11.50;76.80;;;;;;5071524;28;20453;-82
2022/04/08 09:45:11;;;;;;;2.42;0.60;;;11.80;75.40;;;;;;5059452;28;20055;-83
2022/04/08 09:47:37;;;;;;;1.67;0.70;;;12.00;76.60;;;;;;5077699;28;20016;-83
2022/04/08 09:50:04;;;;;;;0.90;0.50;;;12.30;73.00;;;;;;5078825;28;20549;-83
2022/04/08 09:52:31;;;;;;;1.38;0.75;;;12.40;73.80;;;;;;5070010;28;20028;-83
2022/04/08 09:54:58;;;;;;;4.32;0.88;;;12.50;71.00;;;;;;5069506;28;20032;-83
2022/04/08 09:57:25;;;;;;;4.15;1.15;;;12.50;70.20;;;;;;5069666;28;20489;-82
2022/04/08 09:59:58;;;;;;;1.88;0.80;;;12.40;70.20;;;;;;5075053;28;20040;-83
2022/04/08 10:02:26;;;;;;;1.73;0.80;;;12.30;70.80;;;;;;5067915;28;20032;-81
2022/04/08 10:04:54;;;;;;;4.38;0.90;;;12.10;70.70;;;;;;5069485;28;20039;-83
2022/04/08 10:07:20;;;;;;;4.00;1.05;;;12.00;69.20;;;;;;5050234;28;20024;-81
2022/04/08 10:10:12;;;;;;;1.58;0.60;;;11.80;68.60;;;;;;5073327;28;20097;-82
2022/04/08 10:13:23;;;;;;;1.20;0.60;;;11.60;69.00;;;;;;5053846;28;20027;-81
2022/04/08 10:16:04;;;;;;;3.92;1.52;;;11.60;70.00;;;;;;5070226;28;20021;-82
2022/04/08 10:18:36;;;;;;;1.15;0.57;;;11.60;70.60;;;;;;5068168;28;20029;-82
2022/04/08 10:21:01;;;;;;;2.22;0.77;;;11.70;69.70;;;;;;5058913;28;20036;-83
2022/04/08 10:23:38;;;;;;;5.03;0.77;;;11.80;67.90;;;;;;5080855;28;20031;-83
2022/04/08 10:26:05;;;;;;;1.98;0.88;;;11.80;68.00;;;;;;5065575;28;20024;-83
2022/04/08 10:28:37;;;;;;;3.58;1.10;;;11.80;67.90;;;;;;5067420;28;20039;-82
2022/04/08 10:31:20;;;;;;;1.27;0.60;;;11.80;67.40;;;;;;5067963;28;20032;-82
2022/04/08 10:33:48;;;;;;;1.88;0.80;;;11.80;67.70;;;;;;5051788;28;20028;-82
2022/04/08 10:36:14;;;;;;;3.40;0.70;;;11.80;68.30;;;;;;5080154;28;20107;-82
2022/04/08 10:38:39;;;;;;;1.38;0.55;;;11.80;69.30;;;;;;5079954;28;20580;-81
2022/04/08 10:41:09;;;;;;;6.70;0.93;;;11.80;68.20;;;;;;5067005;28;20031;-82
2022/04/08 10:43:48;;;;;;;2.17;0.75;;;11.80;67.20;;;;;;5073129;28;20515;-80
2022/04/08 10:46:30;;;;;;;2.00;0.90;;;11.90;66.90;;;;;;5077232;28;20036;-81
2022/04/08 10:48:59;;;;;;;2.65;1.27;;;11.80;67.90;;;;;;5068623;28;20103;-81
2022/04/08 10:51:31;;;;;;;4.03;0.70;;;11.80;67.80;;;;;;5068120;28;20035;-81
2022/04/08 10:54:04;;;;;;;2.88;0.82;;;11.70;69.00;;;;;;5067322;28;20078;-83
2022/04/08 10:56:36;;;;;;;2.95;0.68;;;11.70;68.00;;;;;;5063473;28;20028;-83
2022/04/08 10:59:03;;;;;;;7.88;1.15;;;11.80;69.40;;;;;;5067896;28;20082;-81
2022/04/08 11:01:28;;;;;;;2.45;0.80;;;11.80;68.10;;;;;;5042233;28;20036;-81
2022/04/08 11:04:05;;;;;;;2.08;0.90;;;11.90;70.10;;;;;;5055035;28;20035;-82
2022/04/08 11:06:32;;;;;;;3.92;0.70;;;12.00;68.00;;;;;;5048938;28;20139;-80
2022/04/08 11:09:14;;;;;;;2.15;0.82;;;12.00;67.50;;;;;;5065042;28;20048;-81
2022/04/08 11:11:41;;;;;;;2.80;0.80;;;12.00;68.00;;;;;;5064202;28;20020;-81
2022/04/08 11:14:08;;;;;;;1.40;0.70;;;12.00;68.90;;;;;;5048365;28;20465;-81
2022/04/08 11:16:37;;;;;;;2.30;0.80;;;12.10;68.40;;;;;;5049218;28;20028;-81
2022/04/08 11:19:07;;;;;;;1.95;0.65;;;12.10;67.70;;;;;;5067897;28;20423;-83
2022/04/08 11:21:40;;;;;;;1.83;1.17;;;12.20;69.30;;;;;;5065281;28;20029;-81
2022/04/08 11:24:09;;;;;;;1.27;1.05;;;12.40;68.80;;;;;;5051004;28;20024;-80
2022/04/08 11:26:52;;;;;;;2.53;0.70;;;12.40;69.10;;;;;;5067592;28;20089;-80
2022/04/08 11:29:19;;;;;;;1.77;0.85;;;12.40;68.80;;;;;;5066266;28;20032;-80
2022/04/08 11:31:46;;;;;;;1.98;0.90;;;12.30;70.10;;;;;;5065212;28;20052;-80
2022/04/08 11:34:13;;;;;;;2.97;1.00;;;12.50;70.90;;;;;;5067051;28;20108;-81
2022/04/08 11:36:40;;;;;;;2.03;0.70;;;12.60;68.80;;;;;;5064799;28;20046;-82
2022/04/08 11:39:07;;;;;;;1.65;0.80;;;12.60;68.30;;;;;;5043190;28;20139;-79
2022/04/08 11:41:38;;;;;;;4.47;1.17;;;12.60;69.30;;;;;;5065304;28;20101;-82
2022/04/08 11:44:05;;;;;;;3.08;1.17;;;12.70;70.40;;;;;;5066926;28;20028;-82
2022/04/08 11:46:30;;;;;;;2.40;0.90;;;12.90;69.10;;;;;;5050636;28;20059;-82
2022/04/08 11:48:56;;;;;;;2.72;0.75;;;13.00;69.10;;;;;;5073411;28;20107;-81
2022/04/08 11:51:22;;;;;;;3.75;1.02;;;13.00;68.90;;;;;;5066128;28;20041;-81
2022/04/08 11:53:50;;;;;;;1.05;0.70;;;12.90;68.10;;;;;;5057371;28;20024;-81
2022/04/08 11:56:24;;;;;;;1.75;0.77;;;12.90;67.40;;;;;;5064260;28;20021;-81
2022/04/08 11:58:53;;;;;;;3.15;1.02;;;12.80;67.90;;;;;;5065206;28;20028;-81
2022/04/08 12:01:19;;;;;;;1.85;0.80;;;12.80;68.10;;;;;;5049005;28;20033;-81
2022/04/08 12:03:44;;;;;;;5.32;0.95;;;12.90;69.00;;;;;;5049086;28;20025;-82
2022/04/08 12:06:10;;;;;;;1.98;1.02;;;13.00;68.80;;;;;;5074428;28;20443;-81
2022/04/08 12:08:37;;;;;;;4.03;1.67;;;13.00;67.80;;;;;;5067503;28;20033;-81
2022/04/08 12:11:08;;;;;;;2.13;0.88;;;13.00;66.70;;;;;;5063110;28;20119;-81
2022/04/08 12:13:35;;;;;;;2.80;1.10;;;13.00;68.60;;;;;;5070461;28;20024;-82
2022/04/08 12:16:00;;;;;;;13.40;1.27;;;13.10;67.30;;;;;;5072480;28;20035;-81
2022/04/08 12:18:32;;;;;;;1.80;1.08;;;13.20;66.00;;;;;;5072711;28;20032;-81
2022/04/08 12:21:02;;;;;;;2.42;1.00;;;13.20;67.00;;;;;;5050780;28;20532;-82
2022/04/08 12:23:28;;;;;;;6.88;1.15;;;13.20;65.20;;;;;;5068566;28;20071;-81
2022/04/08 12:25:56;;;;;;;3.22;0.90;;;13.20;65.80;;;;;;5053398;28;20044;-82
2022/04/08 12:28:23;;;;;;;2.72;1.33;;;12.90;66.40;;;;;;5068064;28;20028;-81
2022/04/08 12:30:50;;;;;;;1.30;1.02;;;12.80;66.60;;;;;;5068211;28;20028;-82
2022/04/08 12:33:17;;;;;;;1.83;1.00;;;12.70;66.00;;;;;;5066907;28;20020;-82
2022/04/08 12:35:46;;;;;;;2.65;1.17;;;12.60;68.80;;;;;;5067790;28;20023;-82
2022/04/08 12:38:11;;;;;;;1.27;1.17;;;12.40;68.70;;;;;;5068303;28;20380;-83
2022/04/08 12:40:39;;;;;;;2.47;1.10;;;12.40;69.20;;;;;;5058625;28;20028;-83
2022/04/08 12:43:05;;;;;;;4.38;1.38;;;12.50;69.10;;;;;;5073681;28;20066;-81
2022/04/08 12:45:30;;;;;;;1.10;0.80;;;12.40;66.90;;;;;;5061896;28;20035;-81
2022/04/08 12:47:56;;;;;;;2.42;1.40;;;12.30;67.50;;;;;;5089759;28;20115;-82
2022/04/08 12:50:21;;;;;;;2.85;1.30;;;12.20;68.00;;;;;;5074560;28;20035;-83
2022/04/08 12:52:47;;;;;;;4.43;1.50;;;12.20;70.40;;;;;;5092932;28;20028;-82